sensor_id;sensor_type;location;lat;lon;timestamp;temperature;humidity
78541;SHT31;67835;51.968;5.646;2024-03-23T00:54:52;10.8;68.5
78541;SHT31;67835;51.968;5.646;2024-03-23T00:57:21;10.8;68.6
78541;SHT31;67835;51.968;5.646;2024-03-23T00:59:50;10.8;68.7
78541;SHT31;67835;51.968;5.646;2024-03-23T01:02:18;10.8;68.6
78541;SHT31;67835;51.968;5.646;2024-03-23T01:04:47;10.8;68.6
78541;SHT31;67835;51.968;5.646;2024-03-23T01:07:15;10.7;68.7
78541;SHT31;67835;51.968;5.646;2024-03-23T01:09:43;10.7;68.8
78541;SHT31;67835;51.968;5.646;2024-03-23T01:12:12;10.7;68.9
78541;SHT31;67835;51.968;5.646;2024-03-23T01:14:40;10.7;69.0
78541;SHT31;67835;51.968;5.646;2024-03-23T01:17:09;10.7;69.1
78541;SHT31;67835;51.968;5.646;2024-03-23T01:19:37;10.7;69.2
78541;SHT31;67835;51.968;5.646;2024-03-23T01:22:07;10.7;69.4
78541;SHT31;67835;51.968;5.646;2024-03-23T01:24:36;10.7;69.5
78541;SHT31;67835;51.968;5.646;2024-03-23T01:27:05;10.7;69.7
78541;SHT31;67835;51.968;5.646;2024-03-23T01:29:35;10.6;69.9
78541;SHT31;67835;51.968;5.646;2024-03-23T01:32:06;10.6;69.9
78541;SHT31;67835;51.968;5.646;2024-03-23T01:34:35;10.6;70.0
78541;SHT31;67835;51.968;5.646;2024-03-23T01:37:04;10.6;70.2
78541;SHT31;67835;51.968;5.646;2024-03-23T01:39:33;10.6;70.2
78541;SHT31;67835;51.968;5.646;2024-03-23T01:42:01;10.6;70.3
78541;SHT31;67835;51.968;5.646;2024-03-23T01:44:30;10.6;70.4
78541;SHT31;67835;51.968;5.646;2024-03-23T01:46:59;10.6;70.3
78541;SHT31;67835;51.968;5.646;2024-03-23T01:49:27;10.6;70.4
78541;SHT31;67835;51.968;5.646;2024-03-23T01:51:58;10.6;70.3
78541;SHT31;67835;51.968;5.646;2024-03-23T01:54:27;10.6;70.3
78541;SHT31;67835;51.968;5.646;2024-03-23T01:56:57;10.6;70.3
78541;SHT31;67835;51.968;5.646;2024-03-23T01:59:26;10.6;70.3
78541;SHT31;67835;51.968;5.646;2024-03-23T02:01:55;10.6;70.3
78541;SHT31;67835;51.968;5.646;2024-03-23T02:04:23;10.6;70.3
78541;SHT31;67835;51.968;5.646;2024-03-23T02:06:53;10.6;70.4
78541;SHT31;67835;51.968;5.646;2024-03-23T02:09:21;10.6;70.4
78541;SHT31;67835;51.968;5.646;2024-03-23T02:11:50;10.6;70.6
78541;SHT31;67835;51.968;5.646;2024-03-23T02:14:19;10.6;70.6
78541;SHT31;67835;51.968;5.646;2024-03-23T02:16:47;10.6;70.6
78541;SHT31;67835;51.968;5.646;2024-03-23T02:19:15;10.6;70.5
78541;SHT31;67835;51.968;5.646;2024-03-23T02:21:44;10.6;70.3
78541;SHT31;67835;51.968;5.646;2024-03-23T02:24:15;10.6;70.3
78541;SHT31;67835;51.968;5.646;2024-03-23T02:26:44;10.6;70.2
78541;SHT31;67835;51.968;5.646;2024-03-23T02:29:14;10.6;69.9
78541;SHT31;67835;51.968;5.646;2024-03-23T02:31:43;10.6;69.7
78541;SHT31;67835;51.968;5.646;2024-03-23T02:34:11;10.5;69.4
78541;SHT31;67835;51.968;5.646;2024-03-23T02:36:40;10.5;69.3
78541;SHT31;67835;51.968;5.646;2024-03-23T02:39:08;10.5;69.2
78541;SHT31;67835;51.968;5.646;2024-03-23T02:41:37;10.4;69.2
78541;SHT31;67835;51.968;5.646;2024-03-23T02:44:05;10.4;69.3
78541;SHT31;67835;51.968;5.646;2024-03-23T02:46:34;10.3;69.3
78541;SHT31;67835;51.968;5.646;2024-03-23T02:49:02;10.3;69.3
78541;SHT31;67835;51.968;5.646;2024-03-23T02:51:31;10.2;69.4
78541;SHT31;67835;51.968;5.646;2024-03-23T02:54:00;10.2;69.6
78541;SHT31;67835;51.968;5.646;2024-03-23T02:56:29;10.1;69.6
78541;SHT31;67835;51.968;5.646;2024-03-23T02:58:57;10.1;69.6
78541;SHT31;67835;51.968;5.646;2024-03-23T03:01:26;10.0;69.7
78541;SHT31;67835;51.968;5.646;2024-03-23T03:03:54;10.0;69.7
78541;SHT31;67835;51.968;5.646;2024-03-23T03:06:26;9.9;69.7
78541;SHT31;67835;51.968;5.646;2024-03-23T03:08:57;9.8;69.8
78541;SHT31;67835;51.968;5.646;2024-03-23T03:11:25;9.8;69.9
78541;SHT31;67835;51.968;5.646;2024-03-23T03:13:54;9.7;70.0
78541;SHT31;67835;51.968;5.646;2024-03-23T03:16:23;9.6;70.2
78541;SHT31;67835;51.968;5.646;2024-03-23T03:18:51;9.6;70.3
78541;SHT31;67835;51.968;5.646;2024-03-23T03:21:19;9.5;70.5
78541;SHT31;67835;51.968;5.646;2024-03-23T03:23:48;9.5;71.0
78541;SHT31;67835;51.968;5.646;2024-03-23T03:26:17;9.4;71.5
78541;SHT31;67835;51.968;5.646;2024-03-23T03:28:48;9.4;71.8
78541;SHT31;67835;51.968;5.646;2024-03-23T03:31:17;9.4;71.7
78541;SHT31;67835;51.968;5.646;2024-03-23T03:33:47;9.4;71.5
78541;SHT31;67835;51.968;5.646;2024-03-23T03:36:18;9.4;71.2
78541;SHT31;67835;51.968;5.646;2024-03-23T03:38:47;9.4;70.9
78541;SHT31;67835;51.968;5.646;2024-03-23T03:41:16;9.4;70.5
78541;SHT31;67835;51.968;5.646;2024-03-23T03:43:44;9.3;70.0
78541;SHT31;67835;51.968;5.646;2024-03-23T03:46:13;9.3;69.7
78541;SHT31;67835;51.968;5.646;2024-03-23T03:48:41;9.3;69.3
78541;SHT31;67835;51.968;5.646;2024-03-23T03:51:13;9.3;69.2
78541;SHT31;67835;51.968;5.646;2024-03-23T03:53:42;9.2;68.8
78541;SHT31;67835;51.968;5.646;2024-03-23T03:56:11;9.2;68.7
78541;SHT31;67835;51.968;5.646;2024-03-23T03:58:39;9.1;68.5
78541;SHT31;67835;51.968;5.646;2024-03-23T04:01:10;9.1;68.4
78541;SHT31;67835;51.968;5.646;2024-03-23T04:03:39;9.0;68.3
78541;SHT31;67835;51.968;5.646;2024-03-23T04:06:10;9.0;68.3
78541;SHT31;67835;51.968;5.646;2024-03-23T04:08:38;8.9;68.2
78541;SHT31;67835;51.968;5.646;2024-03-23T04:11:07;8.9;68.3
78541;SHT31;67835;51.968;5.646;2024-03-23T04:13:35;8.9;68.3
78541;SHT31;67835;51.968;5.646;2024-03-23T04:16:05;8.8;68.4
78541;SHT31;67835;51.968;5.646;2024-03-23T04:18:33;8.8;68.4
78541;SHT31;67835;51.968;5.646;2024-03-23T04:21:02;8.7;68.2
78541;SHT31;67835;51.968;5.646;2024-03-23T04:23:31;8.7;68.2
78541;SHT31;67835;51.968;5.646;2024-03-23T04:26:04;8.6;68.2
78541;SHT31;67835;51.968;5.646;2024-03-23T04:28:32;8.6;68.2
78541;SHT31;67835;51.968;5.646;2024-03-23T04:31:06;8.6;68.4
78541;SHT31;67835;51.968;5.646;2024-03-23T04:33:34;8.5;68.4
78541;SHT31;67835;51.968;5.646;2024-03-23T04:36:03;8.5;68.4
78541;SHT31;67835;51.968;5.646;2024-03-23T04:38:33;8.4;68.5
78541;SHT31;67835;51.968;5.646;2024-03-23T04:41:04;8.4;68.4
78541;SHT31;67835;51.968;5.646;2024-03-23T04:43:34;8.4;68.3
78541;SHT31;67835;51.968;5.646;2024-03-23T04:46:03;8.4;68.4
78541;SHT31;67835;51.968;5.646;2024-03-23T04:48:32;8.4;68.1
78541;SHT31;67835;51.968;5.646;2024-03-23T04:51:00;8.3;68.1
78541;SHT31;67835;51.968;5.646;2024-03-23T04:53:29;8.3;68.2
78541;SHT31;67835;51.968;5.646;2024-03-23T04:55:58;8.3;68.3
78541;SHT31;67835;51.968;5.646;2024-03-23T04:58:27;8.3;68.3
78541;SHT31;67835;51.968;5.646;2024-03-23T05:00:56;8.2;68.2
78541;SHT31;67835;51.968;5.646;2024-03-23T05:03:25;8.2;68.4
78541;SHT31;67835;51.968;5.646;2024-03-23T05:05:55;8.2;68.4
78541;SHT31;67835;51.968;5.646;2024-03-23T05:08:24;8.1;68.6
78541;SHT31;67835;51.968;5.646;2024-03-23T05:10:53;8.1;68.7
78541;SHT31;67835;51.968;5.646;2024-03-23T05:13:23;8.1;68.8
78541;SHT31;67835;51.968;5.646;2024-03-23T05:15:55;8.1;69.0
78541;SHT31;67835;51.968;5.646;2024-03-23T05:18:26;8.1;69.0
78541;SHT31;67835;51.968;5.646;2024-03-23T05:20:57;8.0;69.0
78541;SHT31;67835;51.968;5.646;2024-03-23T05:23:27;8.0;69.1
78541;SHT31;67835;51.968;5.646;2024-03-23T05:25:58;8.0;69.1
78541;SHT31;67835;51.968;5.646;2024-03-23T05:28:27;8.0;69.1
78541;SHT31;67835;51.968;5.646;2024-03-23T05:30:55;8.0;69.0
78541;SHT31;67835;51.968;5.646;2024-03-23T05:38:15;8.0;68.9
78541;SHT31;67835;51.968;5.646;2024-03-23T05:40:54;8.1;68.6
78541;SHT31;67835;51.968;5.646;2024-03-23T05:45:58;8.1;68.2
78541;SHT31;67835;51.968;5.646;2024-03-23T05:48:28;8.2;67.9
78541;SHT31;67835;51.968;5.646;2024-03-23T05:50:59;8.2;67.8
78541;SHT31;67835;51.968;5.646;2024-03-23T09:46:48;21.6;32.8
78541;SHT31;67835;51.968;5.646;2024-03-23T09:49:16;21.4;32.8
78541;SHT31;67835;51.968;5.646;2024-03-23T09:51:45;21.4;32.7
78541;SHT31;67835;51.968;5.646;2024-03-23T09:54:13;21.5;31.0
78541;SHT31;67835;51.968;5.646;2024-03-23T09:56:42;21.6;31.4
78541;SHT31;67835;51.968;5.646;2024-03-23T09:59:11;21.7;30.9
78541;SHT31;67835;51.968;5.646;2024-03-23T10:01:43;21.9;30.8
78541;SHT31;67835;51.968;5.646;2024-03-23T10:04:41;22.1;29.8
78541;SHT31;67835;51.968;5.646;2024-03-23T10:07:16;22.3;29.1
78541;SHT31;67835;51.968;5.646;2024-03-23T10:09:45;22.4;29.4
78541;SHT31;67835;51.968;5.646;2024-03-23T10:12:16;22.4;29.3
78541;SHT31;67835;51.968;5.646;2024-03-23T10:14:45;22.4;29.5
78541;SHT31;67835;51.968;5.646;2024-03-23T10:17:21;22.0;31.8
78541;SHT31;67835;51.968;5.646;2024-03-23T10:19:57;21.3;32.7
78541;SHT31;67835;51.968;5.646;2024-03-23T10:22:38;20.9;34.5
78541;SHT31;67835;51.968;5.646;2024-03-23T10:25:10;20.8;32.8
78541;SHT31;67835;51.968;5.646;2024-03-23T10:27:40;20.8;33.3
78541;SHT31;67835;51.968;5.646;2024-03-23T10:30:11;20.9;34.0
78541;SHT31;67835;51.968;5.646;2024-03-23T10:32:41;21.1;33.5
78541;SHT31;67835;51.968;5.646;2024-03-23T10:35:16;21.4;32.8
78541;SHT31;67835;51.968;5.646;2024-03-23T10:37:48;21.8;32.8
78541;SHT31;67835;51.968;5.646;2024-03-23T10:40:18;22.1;31.0
78541;SHT31;67835;51.968;5.646;2024-03-23T10:42:47;22.1;30.1
78541;SHT31;67835;51.968;5.646;2024-03-23T10:45:16;21.8;29.0
78541;SHT31;67835;51.968;5.646;2024-03-23T10:47:45;21.3;30.7
78541;SHT31;67835;51.968;5.646;2024-03-23T10:50:16;21.1;30.9
78541;SHT31;67835;51.968;5.646;2024-03-23T10:52:47;21.1;32.0
78541;SHT31;67835;51.968;5.646;2024-03-23T10:55:19;21.2;31.6
78541;SHT31;67835;51.968;5.646;2024-03-23T10:57:53;21.4;29.9
78541;SHT31;67835;51.968;5.646;2024-03-23T11:00:24;21.4;28.7
78541;SHT31;67835;51.968;5.646;2024-03-23T11:02:53;21.2;29.3
78541;SHT31;67835;51.968;5.646;2024-03-23T11:05:32;21.1;30.6
78541;SHT31;67835;51.968;5.646;2024-03-23T11:08:03;21.1;31.8
78541;SHT31;67835;51.968;5.646;2024-03-23T11:10:32;21.2;32.3
78541;SHT31;67835;51.968;5.646;2024-03-23T11:13:22;21.4;31.1
78541;SHT31;67835;51.968;5.646;2024-03-23T11:15:51;21.3;30.5
78541;SHT31;67835;51.968;5.646;2024-03-23T11:18:22;21.1;30.6
78541;SHT31;67835;51.968;5.646;2024-03-23T11:20:50;20.8;30.3
78541;SHT31;67835;51.968;5.646;2024-03-23T11:23:29;20.4;31.5
78541;SHT31;67835;51.968;5.646;2024-03-23T11:25:57;19.9;33.4
78541;SHT31;67835;51.968;5.646;2024-03-23T11:28:26;19.5;36.3
78541;SHT31;67835;51.968;5.646;2024-03-23T11:30:55;19.4;36.5
78541;SHT31;67835;51.968;5.646;2024-03-23T11:33:25;19.5;35.5
78541;SHT31;67835;51.968;5.646;2024-03-23T11:35:57;19.8;36.1
78541;SHT31;67835;51.968;5.646;2024-03-23T11:38:25;20.3;34.5
78541;SHT31;67835;51.968;5.646;2024-03-23T11:40:54;20.8;32.1
78541;SHT31;67835;51.968;5.646;2024-03-23T11:43:26;20.9;30.6
78541;SHT31;67835;51.968;5.646;2024-03-23T11:45:54;20.8;30.9
78541;SHT31;67835;51.968;5.646;2024-03-23T11:48:24;20.3;31.0
78541;SHT31;67835;51.968;5.646;2024-03-23T11:50:57;19.7;31.1
78541;SHT31;67835;51.968;5.646;2024-03-23T11:53:26;19.0;33.4
78541;SHT31;67835;51.968;5.646;2024-03-23T11:55:58;18.9;34.3
78541;SHT31;67835;51.968;5.646;2024-03-23T11:58:28;18.8;35.8
78541;SHT31;67835;51.968;5.646;2024-03-23T12:01:00;18.7;35.7
78541;SHT31;67835;51.968;5.646;2024-03-23T12:03:31;18.5;34.9
78541;SHT31;67835;51.968;5.646;2024-03-23T12:06:03;18.2;35.0
78541;SHT31;67835;51.968;5.646;2024-03-23T12:08:35;18.0;36.2
78541;SHT31;67835;51.968;5.646;2024-03-23T12:11:10;17.8;36.1
78541;SHT31;67835;51.968;5.646;2024-03-23T12:13:42;17.7;34.9
78541;SHT31;67835;51.968;5.646;2024-03-23T12:16:14;17.5;35.3
78541;SHT31;67835;51.968;5.646;2024-03-23T12:18:45;17.4;36.1
78541;SHT31;67835;51.968;5.646;2024-03-23T12:21:15;17.2;34.5
78541;SHT31;67835;51.968;5.646;2024-03-23T12:23:45;17.0;35.1
78541;SHT31;67835;51.968;5.646;2024-03-23T12:26:17;16.9;34.9
78541;SHT31;67835;51.968;5.646;2024-03-23T12:28:47;17.0;37.0
78541;SHT31;67835;51.968;5.646;2024-03-23T12:31:18;17.2;34.2
78541;SHT31;67835;51.968;5.646;2024-03-23T12:33:46;17.5;35.7
78541;SHT31;67835;51.968;5.646;2024-03-23T12:36:15;17.8;36.7
78541;SHT31;67835;51.968;5.646;2024-03-23T12:38:43;18.2;39.6
78541;SHT31;67835;51.968;5.646;2024-03-23T12:41:12;18.6;35.3
78541;SHT31;67835;51.968;5.646;2024-03-23T12:43:40;18.9;32.7
78541;SHT31;67835;51.968;5.646;2024-03-23T12:46:09;19.0;31.3
78541;SHT31;67835;51.968;5.646;2024-03-23T12:48:38;19.0;30.5
78541;SHT31;67835;51.968;5.646;2024-03-23T12:51:08;19.1;31.9
78541;SHT31;67835;51.968;5.646;2024-03-23T12:53:36;19.1;33.8
78541;SHT31;67835;51.968;5.646;2024-03-23T12:56:06;19.3;33.1
78541;SHT31;67835;51.968;5.646;2024-03-23T12:58:34;19.6;32.8
78541;SHT31;67835;51.968;5.646;2024-03-23T13:01:03;19.7;31.5
78541;SHT31;67835;51.968;5.646;2024-03-23T13:03:32;19.7;31.0
78541;SHT31;67835;51.968;5.646;2024-03-23T13:06:01;19.6;31.2
78541;SHT31;67835;51.968;5.646;2024-03-23T13:08:35;19.5;31.3
78541;SHT31;67835;51.968;5.646;2024-03-23T13:11:03;19.4;32.7
78541;SHT31;67835;51.968;5.646;2024-03-23T13:13:31;19.2;32.2
78541;SHT31;67835;51.968;5.646;2024-03-23T13:16:00;19.0;33.8
78541;SHT31;67835;51.968;5.646;2024-03-23T13:18:34;18.8;34.0
78541;SHT31;67835;51.968;5.646;2024-03-23T13:21:05;18.7;34.0
78541;SHT31;67835;51.968;5.646;2024-03-23T13:23:33;18.6;36.5
78541;SHT31;67835;51.968;5.646;2024-03-23T13:26:04;18.5;37.8
78541;SHT31;67835;51.968;5.646;2024-03-23T13:28:34;18.5;37.4
78541;SHT31;67835;51.968;5.646;2024-03-23T13:31:03;18.6;38.3
78541;SHT31;67835;51.968;5.646;2024-03-23T13:33:32;18.7;36.7
78541;SHT31;67835;51.968;5.646;2024-03-23T13:36:01;18.8;37.8
78541;SHT31;67835;51.968;5.646;2024-03-23T13:38:30;18.9;34.5
78541;SHT31;67835;51.968;5.646;2024-03-23T13:41:00;18.8;32.8
78541;SHT31;67835;51.968;5.646;2024-03-23T13:43:31;18.7;33.4
78541;SHT31;67835;51.968;5.646;2024-03-23T13:46:00;18.5;33.5
78541;SHT31;67835;51.968;5.646;2024-03-23T13:48:31;18.2;34.3
78541;SHT31;67835;51.968;5.646;2024-03-23T13:51:03;17.9;34.8
78541;SHT31;67835;51.968;5.646;2024-03-23T13:53:32;17.7;35.1
78541;SHT31;67835;51.968;5.646;2024-03-23T13:56:03;17.5;41.3
78541;SHT31;67835;51.968;5.646;2024-03-23T13:58:33;17.4;43.0
78541;SHT31;67835;51.968;5.646;2024-03-23T14:01:02;17.4;42.7
78541;SHT31;67835;51.968;5.646;2024-03-23T14:03:31;17.4;39.7
78541;SHT31;67835;51.968;5.646;2024-03-23T14:06:01;17.4;39.0
78541;SHT31;67835;51.968;5.646;2024-03-23T14:08:30;17.4;39.2
78541;SHT31;67835;51.968;5.646;2024-03-23T14:11:04;17.3;38.3
78541;SHT31;67835;51.968;5.646;2024-03-23T14:13:33;17.1;39.3
78541;SHT31;67835;51.968;5.646;2024-03-23T14:16:02;16.9;39.5
78541;SHT31;67835;51.968;5.646;2024-03-23T14:18:34;16.8;40.6
78541;SHT31;67835;51.968;5.646;2024-03-23T14:21:03;16.6;41.0
78541;SHT31;67835;51.968;5.646;2024-03-23T14:23:33;16.3;42.7
78541;SHT31;67835;51.968;5.646;2024-03-23T14:26:02;15.9;43.0
78541;SHT31;67835;51.968;5.646;2024-03-23T14:28:30;15.5;44.5
78541;SHT31;67835;51.968;5.646;2024-03-23T14:31:00;15.2;46.2
78541;SHT31;67835;51.968;5.646;2024-03-23T14:33:34;15.0;47.9
78541;SHT31;67835;51.968;5.646;2024-03-23T14:36:07;15.0;47.0
78541;SHT31;67835;51.968;5.646;2024-03-23T14:38:37;14.9;46.4
78541;SHT31;67835;51.968;5.646;2024-03-23T14:41:06;14.8;46.4
78541;SHT31;67835;51.968;5.646;2024-03-23T14:43:34;14.7;45.3
78541;SHT31;67835;51.968;5.646;2024-03-23T14:46:10;14.6;45.7
78541;SHT31;67835;51.968;5.646;2024-03-23T14:48:40;14.5;44.9
78541;SHT31;67835;51.968;5.646;2024-03-23T14:51:10;14.4;45.6
78541;SHT31;67835;51.968;5.646;2024-03-23T14:53:40;14.3;45.6
78541;SHT31;67835;51.968;5.646;2024-03-23T14:56:09;14.1;45.9
78541;SHT31;67835;51.968;5.646;2024-03-23T14:58:42;14.0;46.1
78541;SHT31;67835;51.968;5.646;2024-03-23T15:01:12;13.9;49.0
78541;SHT31;67835;51.968;5.646;2024-03-23T15:03:40;13.9;51.5
78541;SHT31;67835;51.968;5.646;2024-03-23T15:06:10;13.9;50.3
78541;SHT31;67835;51.968;5.646;2024-03-23T15:08:39;14.1;48.5
78541;SHT31;67835;51.968;5.646;2024-03-23T15:11:10;14.4;47.0
78541;SHT31;67835;51.968;5.646;2024-03-23T15:13:50;14.6;45.2
78541;SHT31;67835;51.968;5.646;2024-03-23T15:16:18;14.7;44.1
78541;SHT31;67835;51.968;5.646;2024-03-23T15:18:49;14.7;44.7
78541;SHT31;67835;51.968;5.646;2024-03-23T15:21:17;14.8;44.3
78541;SHT31;67835;51.968;5.646;2024-03-23T15:23:48;14.9;43.7
78541;SHT31;67835;51.968;5.646;2024-03-23T15:26:16;14.9;44.6
78541;SHT31;67835;51.968;5.646;2024-03-23T15:28:48;14.9;43.0
78541;SHT31;67835;51.968;5.646;2024-03-23T15:31:38;15.0;42.0
78541;SHT31;67835;51.968;5.646;2024-03-23T15:34:07;15.1;39.6
78541;SHT31;67835;51.968;5.646;2024-03-23T15:36:36;15.1;40.2
78541;SHT31;67835;51.968;5.646;2024-03-23T15:39:06;15.0;40.2
78541;SHT31;67835;51.968;5.646;2024-03-23T15:41:35;15.0;40.3
78541;SHT31;67835;51.968;5.646;2024-03-23T15:44:04;15.0;39.6
78541;SHT31;67835;51.968;5.646;2024-03-23T15:46:33;15.0;40.6
78541;SHT31;67835;51.968;5.646;2024-03-23T15:49:01;14.9;41.2
78541;SHT31;67835;51.968;5.646;2024-03-23T15:51:31;14.9;41.7
78541;SHT31;67835;51.968;5.646;2024-03-23T15:54:03;14.9;42.3
78541;SHT31;67835;51.968;5.646;2024-03-23T15:56:33;14.9;41.9
78541;SHT31;67835;51.968;5.646;2024-03-23T15:59:02;14.9;42.0
78541;SHT31;67835;51.968;5.646;2024-03-23T16:01:35;15.0;42.0
78541;SHT31;67835;51.968;5.646;2024-03-23T16:04:06;15.1;41.0
78541;SHT31;67835;51.968;5.646;2024-03-23T16:06:37;15.1;41.6
78541;SHT31;67835;51.968;5.646;2024-03-23T16:09:08;15.1;42.0
78541;SHT31;67835;51.968;5.646;2024-03-23T16:11:37;15.1;41.5
78541;SHT31;67835;51.968;5.646;2024-03-23T16:14:05;15.1;41.8
78541;SHT31;67835;51.968;5.646;2024-03-23T16:16:36;15.1;41.8
78541;SHT31;67835;51.968;5.646;2024-03-23T16:19:04;15.1;41.6
78541;SHT31;67835;51.968;5.646;2024-03-23T16:21:33;15.1;41.6
78541;SHT31;67835;51.968;5.646;2024-03-23T16:24:04;15.1;41.7
78541;SHT31;67835;51.968;5.646;2024-03-23T16:26:34;15.0;42.8
78541;SHT31;67835;51.968;5.646;2024-03-23T16:29:02;15.0;42.5
78541;SHT31;67835;51.968;5.646;2024-03-23T16:31:33;15.0;42.4
78541;SHT31;67835;51.968;5.646;2024-03-23T16:34:01;15.0;42.5
78541;SHT31;67835;51.968;5.646;2024-03-23T16:36:30;15.0;42.3
78541;SHT31;67835;51.968;5.646;2024-03-23T16:39:01;14.9;41.6
78541;SHT31;67835;51.968;5.646;2024-03-23T16:41:29;14.9;42.7
78541;SHT31;67835;51.968;5.646;2024-03-23T16:43:58;14.8;42.3
78541;SHT31;67835;51.968;5.646;2024-03-23T16:46:27;14.7;41.6
78541;SHT31;67835;51.968;5.646;2024-03-23T16:48:56;14.6;41.7
78541;SHT31;67835;51.968;5.646;2024-03-23T16:51:25;14.5;42.1
78541;SHT31;67835;51.968;5.646;2024-03-23T16:53:53;14.3;42.1
78541;SHT31;67835;51.968;5.646;2024-03-23T16:56:26;14.2;42.5
78541;SHT31;67835;51.968;5.646;2024-03-23T16:58:54;14.1;43.1
78541;SHT31;67835;51.968;5.646;2024-03-23T17:01:23;14.1;43.1
78541;SHT31;67835;51.968;5.646;2024-03-23T17:03:53;14.0;43.6
78541;SHT31;67835;51.968;5.646;2024-03-23T17:06:23;13.9;44.1
78541;SHT31;67835;51.968;5.646;2024-03-23T17:08:53;13.9;44.5
78541;SHT31;67835;51.968;5.646;2024-03-23T17:11:25;13.8;44.1
78541;SHT31;67835;51.968;5.646;2024-03-23T17:13:54;13.7;44.5
78541;SHT31;67835;51.968;5.646;2024-03-23T17:16:23;13.7;44.6
78541;SHT31;67835;51.968;5.646;2024-03-23T17:18:55;13.6;45.0
78541;SHT31;67835;51.968;5.646;2024-03-23T17:21:24;13.5;44.9
78541;SHT31;67835;51.968;5.646;2024-03-23T17:23:56;13.4;45.6
78541;SHT31;67835;51.968;5.646;2024-03-23T17:26:27;13.3;45.9
78541;SHT31;67835;51.968;5.646;2024-03-23T17:28:56;13.2;46.3
78541;SHT31;67835;51.968;5.646;2024-03-23T17:31:24;13.2;47.0
78541;SHT31;67835;51.968;5.646;2024-03-23T17:33:53;13.2;46.6
78541;SHT31;67835;51.968;5.646;2024-03-23T17:36:22;13.1;46.1
78541;SHT31;67835;51.968;5.646;2024-03-23T17:38:54;13.0;46.4
78541;SHT31;67835;51.968;5.646;2024-03-23T17:41:23;12.9;46.2
78541;SHT31;67835;51.968;5.646;2024-03-23T17:43:54;12.8;46.5
78541;SHT31;67835;51.968;5.646;2024-03-23T17:46:22;12.6;46.6
78541;SHT31;67835;51.968;5.646;2024-03-23T17:48:51;12.5;47.0
78541;SHT31;67835;51.968;5.646;2024-03-23T17:51:19;12.4;47.2
78541;SHT31;67835;51.968;5.646;2024-03-23T17:53:48;12.2;47.6
78541;SHT31;67835;51.968;5.646;2024-03-23T17:56:17;12.1;48.0
78541;SHT31;67835;51.968;5.646;2024-03-23T17:58:52;12.0;48.0
78541;SHT31;67835;51.968;5.646;2024-03-23T18:01:21;11.9;48.3
78541;SHT31;67835;51.968;5.646;2024-03-23T18:03:52;11.8;48.7
78541;SHT31;67835;51.968;5.646;2024-03-23T18:06:22;11.6;48.9
78541;SHT31;67835;51.968;5.646;2024-03-23T18:08:53;11.5;49.7
78541;SHT31;67835;51.968;5.646;2024-03-23T18:11:23;11.3;50.1
78541;SHT31;67835;51.968;5.646;2024-03-23T18:13:52;11.2;50.7
78541;SHT31;67835;51.968;5.646;2024-03-23T18:16:22;11.1;51.3
78541;SHT31;67835;51.968;5.646;2024-03-23T18:18:52;10.9;51.8
78541;SHT31;67835;51.968;5.646;2024-03-23T18:21:20;10.8;52.9
78541;SHT31;67835;51.968;5.646;2024-03-23T18:23:48;10.8;54.1
78541;SHT31;67835;51.968;5.646;2024-03-23T18:26:18;10.7;55.7
78541;SHT31;67835;51.968;5.646;2024-03-23T18:28:50;10.6;57.7
78541;SHT31;67835;51.968;5.646;2024-03-23T18:31:20;10.5;57.5
78541;SHT31;67835;51.968;5.646;2024-03-23T18:33:49;10.4;57.3
78541;SHT31;67835;51.968;5.646;2024-03-23T18:36:19;10.1;57.7
78541;SHT31;67835;51.968;5.646;2024-03-23T18:38:48;9.9;58.3
78541;SHT31;67835;51.968;5.646;2024-03-23T18:41:19;9.8;59.0
78541;SHT31;67835;51.968;5.646;2024-03-23T18:43:49;9.6;59.9
78541;SHT31;67835;51.968;5.646;2024-03-23T18:46:20;9.4;60.8
78541;SHT31;67835;51.968;5.646;2024-03-23T18:48:49;9.3;61.6
78541;SHT31;67835;51.968;5.646;2024-03-23T18:51:18;9.2;62.3
78541;SHT31;67835;51.968;5.646;2024-03-23T18:53:47;9.2;63.0
78541;SHT31;67835;51.968;5.646;2024-03-23T18:56:16;9.1;63.6
78541;SHT31;67835;51.968;5.646;2024-03-23T18:58:44;9.1;63.3
78541;SHT31;67835;51.968;5.646;2024-03-23T19:01:13;9.1;63.2
78541;SHT31;67835;51.968;5.646;2024-03-23T19:03:41;9.1;62.6
78541;SHT31;67835;51.968;5.646;2024-03-23T19:06:12;9.1;62.5
78541;SHT31;67835;51.968;5.646;2024-03-23T19:08:41;9.0;62.5
78541;SHT31;67835;51.968;5.646;2024-03-23T19:11:12;9.0;62.8
78541;SHT31;67835;51.968;5.646;2024-03-23T19:13:45;8.9;62.7
78541;SHT31;67835;51.968;5.646;2024-03-23T19:16:16;8.9;62.9
78541;SHT31;67835;51.968;5.646;2024-03-23T19:18:44;8.8;63.2
78541;SHT31;67835;51.968;5.646;2024-03-23T19:21:14;8.7;63.6
78541;SHT31;67835;51.968;5.646;2024-03-23T19:23:42;8.7;63.7
78541;SHT31;67835;51.968;5.646;2024-03-23T19:26:10;8.7;63.8
78541;SHT31;67835;51.968;5.646;2024-03-23T19:28:39;8.6;64.2
78541;SHT31;67835;51.968;5.646;2024-03-23T19:31:10;8.6;64.1
78541;SHT31;67835;51.968;5.646;2024-03-23T19:33:39;8.6;64.2
78541;SHT31;67835;51.968;5.646;2024-03-23T19:36:09;8.6;64.2
78541;SHT31;67835;51.968;5.646;2024-03-23T19:38:40;8.6;64.2
78541;SHT31;67835;51.968;5.646;2024-03-23T19:41:09;8.6;64.4
78541;SHT31;67835;51.968;5.646;2024-03-23T19:43:38;8.6;64.6
78541;SHT31;67835;51.968;5.646;2024-03-23T19:46:11;8.6;64.4
78541;SHT31;67835;51.968;5.646;2024-03-23T19:48:41;8.6;64.5
78541;SHT31;67835;51.968;5.646;2024-03-23T19:51:09;8.5;64.7
78541;SHT31;67835;51.968;5.646;2024-03-23T19:53:38;8.5;64.9
78541;SHT31;67835;51.968;5.646;2024-03-23T19:56:09;8.4;65.2
78541;SHT31;67835;51.968;5.646;2024-03-23T19:58:38;8.4;65.4
78541;SHT31;67835;51.968;5.646;2024-03-23T20:01:17;8.4;65.7
78541;SHT31;67835;51.968;5.646;2024-03-23T20:03:50;8.4;65.8
78541;SHT31;67835;51.968;5.646;2024-03-23T20:06:20;8.4;65.8
78541;SHT31;67835;51.968;5.646;2024-03-23T20:08:51;8.4;65.9
78541;SHT31;67835;51.968;5.646;2024-03-23T20:11:27;8.4;65.8
78541;SHT31;67835;51.968;5.646;2024-03-23T20:13:56;8.4;65.8
78541;SHT31;67835;51.968;5.646;2024-03-23T20:16:26;8.4;65.8
78541;SHT31;67835;51.968;5.646;2024-03-23T20:18:58;8.4;65.5
78541;SHT31;67835;51.968;5.646;2024-03-23T20:21:26;8.4;65.6
78541;SHT31;67835;51.968;5.646;2024-03-23T20:23:56;8.4;65.4
78541;SHT31;67835;51.968;5.646;2024-03-23T20:26:30;8.5;65.2
78541;SHT31;67835;51.968;5.646;2024-03-23T20:29:20;8.5;64.9
78541;SHT31;67835;51.968;5.646;2024-03-23T20:31:49;8.5;64.7
78541;SHT31;67835;51.968;5.646;2024-03-23T20:34:32;8.6;64.4
78541;SHT31;67835;51.968;5.646;2024-03-23T20:37:22;8.6;64.3
78541;SHT31;67835;51.968;5.646;2024-03-23T20:39:54;8.6;64.3
78541;SHT31;67835;51.968;5.646;2024-03-23T20:42:41;8.6;64.3
78541;SHT31;67835;51.968;5.646;2024-03-23T20:45:16;8.7;64.2
78541;SHT31;67835;51.968;5.646;2024-03-23T20:47:51;8.7;63.7
78541;SHT31;67835;51.968;5.646;2024-03-23T20:50:21;8.8;63.1
78541;SHT31;67835;51.968;5.646;2024-03-23T20:52:57;8.8;63.0
78541;SHT31;67835;51.968;5.646;2024-03-23T21:00:44;9.0;61.9
78541;SHT31;67835;51.968;5.646;2024-03-23T21:03:20;9.0;61.5
78541;SHT31;67835;51.968;5.646;2024-03-23T21:05:54;9.0;61.3
78541;SHT31;67835;51.968;5.646;2024-03-23T21:08:31;8.9;61.3
78541;SHT31;67835;51.968;5.646;2024-03-23T21:11:01;8.9;61.2
78541;SHT31;67835;51.968;5.646;2024-03-23T21:13:35;8.9;61.2
78541;SHT31;67835;51.968;5.646;2024-03-23T21:16:09;8.8;61.0
78541;SHT31;67835;51.968;5.646;2024-03-23T21:18:51;8.8;61.0
78541;SHT31;67835;51.968;5.646;2024-03-23T21:21:34;8.8;60.7
78541;SHT31;67835;51.968;5.646;2024-03-23T21:24:25;8.8;60.8
78541;SHT31;67835;51.968;5.646;2024-03-23T21:27:06;8.8;61.0